PST,Max TemperatureF,Mean TemperatureF,Min TemperatureF,Max Dew PointF,MeanDew PointF,Min DewpointF,Max Humidity, Mean Humidity, Min Humidity, Max Sea Level PressureIn, Mean Sea Level PressureIn, Min Sea Level PressureIn, Max VisibilityMiles, Mean VisibilityMiles, Min VisibilityMiles, Max Wind SpeedMPH, Mean Wind SpeedMPH, Max Gust SpeedMPH,PrecipitationIn, CloudCover, Events, WindDirDegrees
2013-11-1,84,70,55,52,41,23,67,43,11,30.10,30.02,29.94,10,10,10,8,1,,0.00,0,,280
2013-11-2,82,68,55,60,43,25,87,49,13,29.98,29.92,29.88,10,9,1,14,2,,0.00,1,,220
2013-11-3,70,64,60,57,53,50,82,69,51,29.92,29.88,29.83,10,10,8,10,5,,0.00,5,,112
2013-11-4,68,64,59,54,51,48,83,65,49,29.94,29.86,29.80,10,10,8,12,5,,0.00,5,,144
2013-11-5,73,64,54,53,44,27,87,54,18,30.14,30.06,29.96,10,10,6,14,2,,0.00,0,,255
2013-11-6,80,68,57,43,25,3,48,24,5,30.20,30.15,30.10,10,9,2,10,2,16,0.00,0,,276
2013-11-7,84,72,61,47,29,9,58,26,6,30.12,30.05,29.99,10,10,10,8,1,,0.00,0,,288
2013-11-8,75,66,57,58,50,36,90,62,31,30.04,29.99,29.94,10,10,5,7,2,,0.00,1,,206
2013-11-9,75,66,57,57,53,36,94,73,24,30.08,30.03,30.00,10,7,3,9,3,,0.00,3,,210
2013-11-10,81,68,55,55,49,27,87,67,14,30.12,30.07,30.04,10,9,4,17,3,23,0.00,0,,290
2013-11-11,75,64,53,57,50,39,87,66,27,30.13,30.08,30.04,10,9,7,9,2,,0.00,1,,257
2013-11-12,75,65,55,56,51,42,87,66,33,30.16,30.10,30.06,10,10,7,6,1,,0.00,0,,300
2013-11-13,91,74,57,50,41,24,72,39,9,30.04,29.96,29.89,10,10,10,12,1,,0.00,0,,260
2013-11-14,90,75,60,59,39,18,87,37,7,29.92,29.85,29.77,10,10,10,9,2,,0.00,0,,254
2013-11-15,69,64,60,59,54,51,88,73,54,29.76,29.73,29.68,10,9,5,9,6,,0.00,5,Rain,129
2013-11-16,66,62,57,54,49,42,84,63,42,29.94,29.86,29.76,10,10,10,7,1,,0.00,5,,155
2013-11-17,66,60,55,53,50,48,81,68,54,30.10,30.02,29.95,10,10,10,10,1,,0.00,1,,257
2013-11-18,66,60,55,53,51,50,88,74,59,30.16,30.10,30.06,10,10,6,13,2,,0.00,3,,276
2013-11-19,64,60,57,54,51,48,78,70,56,30.08,30.02,29.96,10,10,10,9,3,,0.00,3,,259
2013-11-20,64,62,59,57,54,51,94,77,61,29.98,29.92,29.88,10,8,2,9,2,,0.08,8,Rain,114
2013-11-21,64,60,57,58,55,49,94,84,64,29.88,29.86,29.83,10,6,2,12,6,,0.29,7,Rain,141
2013-11-22,64,60,55,51,43,35,84,58,34,29.96,29.91,29.88,10,10,10,7,1,,0.02,4,Rain,134
2013-11-23,66,60,53,47,41,35,69,53,31,30.09,30.02,29.96,10,10,10,10,1,,0.00,2,,234
2013-11-24,66,58,51,48,41,36,74,53,33,30.19,30.15,30.09,10,10,10,10,2,,0.00,0,,245
2013-11-25,69,60,51,53,43,36,81,57,32,30.25,30.20,30.16,10,10,2,10,2,,0.00,0,,261
2013-11-26,75,64,52,49,43,28,77,52,17,30.19,30.11,30.04,10,10,2,10,2,,0.00,0,,283
2013-11-27,73,64,55,47,39,31,62,42,21,30.03,29.95,29.88,10,10,10,10,1,,0.00,0,,196
2013-11-28,69,61,53,53,45,36,78,56,32,30.06,29.97,29.90,10,10,8,10,2,,0.00,1,,134
2013-11-29,64,60,55,55,52,49,89,76,60,30.18,30.13,30.06,10,9,4,7,1,,0.25,6,Rain,92
2013-11-30,72,62,53,52,48,41,86,65,33,30.19,30.14,30.08,10,10,10,9,1,,0.01,2,,267